createdAt,value
2018-08-17T00:00:08.037Z,17.10
2018-08-17T00:02:36.850Z,15.57
2018-08-17T00:05:05.911Z,16.33
2018-08-17T00:07:34.840Z,15.93
2018-08-17T00:10:03.775Z,18.00
2018-08-17T00:12:32.615Z,15.73
2018-08-17T00:15:01.464Z,16.80
2018-08-17T00:17:30.294Z,16.80
2018-08-17T00:19:59.354Z,17.07
2018-08-17T00:22:28.234Z,16.90
2018-08-17T00:24:57.126Z,17.07
2018-08-17T00:27:26.025Z,16.07
2018-08-17T00:29:55.045Z,17.03
2018-08-17T00:32:23.907Z,16.50
2018-08-17T00:34:52.729Z,17.20
2018-08-17T00:37:21.572Z,20.90
2018-08-17T00:39:50.538Z,20.33
2018-08-17T00:42:19.446Z,16.63
2018-08-17T00:44:48.394Z,17.27
2018-08-17T00:47:17.295Z,16.63
2018-08-17T00:49:46.177Z,20.83
2018-08-17T00:52:14.984Z,15.67
2018-08-17T00:54:43.913Z,14.97
2018-08-17T00:57:12.748Z,16.90
2018-08-17T00:59:41.773Z,17.97
2018-08-17T01:02:16.932Z,17.00
2018-08-17T01:04:45.613Z,15.63
2018-08-17T01:07:14.422Z,16.43
2018-08-17T01:09:43.182Z,15.87
2018-08-17T01:12:12.008Z,16.00
2018-08-17T01:14:40.600Z,16.97
2018-08-17T01:17:09.333Z,17.33
2018-08-17T01:19:38.019Z,17.07
2018-08-17T01:22:06.834Z,19.87
2018-08-17T01:24:35.548Z,16.40
2018-08-17T01:27:04.402Z,16.07
2018-08-17T01:29:33.321Z,17.27
2018-08-17T01:32:02.011Z,18.70
2018-08-17T01:34:30.671Z,19.93
2018-08-17T01:36:59.382Z,18.43
2018-08-17T01:39:28.097Z,17.60
2018-08-17T01:41:56.922Z,22.20
2018-08-17T01:44:25.660Z,18.27
2018-08-17T01:46:54.414Z,19.73
2018-08-17T01:49:23.136Z,18.60
2018-08-17T01:51:51.871Z,17.03
2018-08-17T01:54:20.543Z,19.10
2018-08-17T01:56:49.263Z,19.50
2018-08-17T01:59:17.963Z,21.00
2018-08-17T02:01:46.733Z,22.13
2018-08-17T02:04:15.459Z,20.97
2018-08-17T02:06:44.247Z,19.93
2018-08-17T02:09:13.369Z,21.13
2018-08-17T02:11:42.253Z,22.73
2018-08-17T02:14:11.145Z,22.80
2018-08-17T02:16:40.488Z,25.10
2018-08-17T02:19:09.500Z,22.13
2018-08-17T02:21:38.377Z,23.73
2018-08-17T02:24:07.226Z,23.27
2018-08-17T02:26:36.157Z,25.00
2018-08-17T02:29:04.942Z,24.70
2018-08-17T02:31:33.764Z,24.23
2018-08-17T02:34:02.579Z,25.90
2018-08-17T02:36:31.434Z,24.03
2018-08-17T02:39:00.156Z,27.13
2018-08-17T02:41:28.960Z,31.33
2018-08-17T02:43:57.775Z,26.03
2018-08-17T02:46:26.684Z,27.33
2018-08-17T02:48:56.460Z,29.63
2018-08-17T02:51:25.453Z,28.97
2018-08-17T02:53:54.261Z,28.33
2018-08-17T02:56:23.215Z,28.47
2018-08-17T02:58:52.101Z,29.70
2018-08-17T03:01:20.918Z,31.47
2018-08-17T03:03:49.705Z,27.40
2018-08-17T03:06:18.604Z,28.67
2018-08-17T03:08:47.554Z,29.57
2018-08-17T03:11:16.489Z,28.97
2018-08-17T03:13:45.355Z,33.67
2018-08-17T03:16:14.202Z,30.30
2018-08-17T03:18:43.046Z,31.00
2018-08-17T03:21:11.864Z,36.57
2018-08-17T03:23:40.597Z,32.90
2018-08-17T03:26:09.755Z,37.23
2018-08-17T03:28:38.541Z,36.13
2018-08-17T03:31:07.758Z,39.47
2018-08-17T03:33:36.614Z,37.40
2018-08-17T03:36:05.481Z,37.10
2018-08-17T03:38:34.356Z,34.33
2018-08-17T03:41:03.252Z,38.37
2018-08-17T03:43:32.143Z,39.03
2018-08-17T03:46:00.996Z,36.73
2018-08-17T03:48:29.842Z,38.17
2018-08-17T03:50:58.592Z,37.83
2018-08-17T03:53:27.553Z,37.73
2018-08-17T03:55:56.445Z,41.87
2018-08-17T03:58:25.266Z,40.97
2018-08-17T04:00:54.372Z,38.67
2018-08-17T04:03:23.110Z,38.33
2018-08-17T04:05:52.022Z,40.67
2018-08-17T04:08:20.875Z,39.93
2018-08-17T04:10:49.702Z,39.03
2018-08-17T04:13:18.772Z,39.43
2018-08-17T04:15:47.617Z,35.40
2018-08-17T04:18:16.493Z,36.17
2018-08-17T04:20:45.319Z,35.77
2018-08-17T04:23:14.297Z,35.20
2018-08-17T04:25:43.107Z,34.10
2018-08-17T04:28:11.935Z,33.67
2018-08-17T04:30:40.797Z,34.17
2018-08-17T04:33:09.825Z,33.13
2018-08-17T04:35:38.769Z,32.27
2018-08-17T04:38:07.702Z,32.23
2018-08-17T04:40:36.540Z,28.47
2018-08-17T04:43:05.394Z,32.23
2018-08-17T04:45:34.108Z,26.80
2018-08-17T04:48:02.931Z,26.87
2018-08-17T04:50:31.754Z,25.17
2018-08-17T04:53:00.570Z,26.80
2018-08-17T04:55:29.375Z,26.93
2018-08-17T04:57:58.114Z,23.73
2018-08-17T05:00:26.903Z,22.30
2018-08-17T05:02:55.725Z,24.63
2018-08-17T05:05:24.412Z,22.47
2018-08-17T05:07:53.188Z,22.23
2018-08-17T05:10:21.988Z,22.20
2018-08-17T05:12:50.825Z,20.90
2018-08-17T05:15:19.719Z,21.97
2018-08-17T05:17:48.518Z,20.27
2018-08-17T05:20:17.308Z,20.13
2018-08-17T05:22:46.165Z,20.60
2018-08-17T05:25:15.106Z,22.30
2018-08-17T05:27:44.006Z,18.13
2018-08-17T05:30:12.968Z,17.10
2018-08-17T05:32:41.805Z,20.30
2018-08-17T05:35:10.942Z,18.33
2018-08-17T05:37:39.753Z,19.13
2018-08-17T05:40:09.426Z,18.57
2018-08-17T05:42:38.669Z,17.73
2018-08-17T05:45:08.449Z,20.27
2018-08-17T05:47:37.362Z,16.67
2018-08-17T05:50:07.378Z,16.50
2018-08-17T05:52:36.907Z,16.37
2018-08-17T05:55:06.063Z,14.67
2018-08-17T05:57:35.336Z,16.63
2018-08-17T06:00:05.288Z,19.63
2018-08-17T06:02:34.087Z,13.73
2018-08-17T06:05:03.056Z,14.80
2018-08-17T06:07:32.031Z,12.90
2018-08-17T06:10:00.896Z,12.60
2018-08-17T06:12:29.825Z,11.17
2018-08-17T06:14:58.726Z,10.97
2018-08-17T06:17:27.647Z,11.77
2018-08-17T06:19:56.687Z,12.00
2018-08-17T06:22:25.450Z,10.20
2018-08-17T06:24:54.408Z,12.33
2018-08-17T06:27:23.546Z,8.97
2018-08-17T06:29:52.525Z,7.60
2018-08-17T06:32:21.468Z,12.10
2018-08-17T06:34:50.478Z,11.17
2018-08-17T06:37:19.423Z,9.00
2018-08-17T06:39:48.260Z,9.20
2018-08-17T06:42:17.188Z,9.27
2018-08-17T06:44:46.784Z,11.47
2018-08-17T06:47:15.940Z,9.67
2018-08-17T06:49:45.089Z,12.07
2018-08-17T06:52:14.079Z,13.60
2018-08-17T06:54:43.178Z,11.37
2018-08-17T06:57:12.152Z,12.03
2018-08-17T06:59:41.129Z,14.00
2018-08-17T07:02:10.133Z,12.10
2018-08-17T07:04:39.144Z,10.33
2018-08-17T07:07:08.040Z,10.03
2018-08-17T07:09:37.084Z,9.20
2018-08-17T07:12:05.926Z,9.03
2018-08-17T07:14:35.761Z,11.90
2018-08-17T07:17:04.608Z,13.00
2018-08-17T07:19:33.643Z,12.00
2018-08-17T07:22:02.571Z,10.77
2018-08-17T07:24:31.638Z,12.57
2018-08-17T07:27:00.675Z,13.07
2018-08-17T07:29:29.873Z,8.93
2018-08-17T07:31:59.875Z,8.07
2018-08-17T07:34:28.772Z,7.43
2018-08-17T07:36:57.736Z,7.97
2018-08-17T07:39:26.895Z,7.93
2018-08-17T07:41:55.928Z,10.63
2018-08-17T07:44:24.848Z,8.40
2018-08-17T07:46:53.677Z,6.20
2018-08-17T07:49:22.609Z,8.27
2018-08-17T07:51:51.516Z,6.73
2018-08-17T07:54:20.442Z,8.13
2018-08-17T07:56:49.236Z,7.03
2018-08-17T07:59:18.078Z,6.90
2018-08-17T08:01:46.854Z,9.60
2018-08-17T08:04:15.896Z,7.23
2018-08-17T08:06:44.973Z,7.10
2018-08-17T08:09:13.880Z,7.53
2018-08-17T08:11:42.963Z,8.10
2018-08-17T08:14:12.310Z,7.47
2018-08-17T08:16:41.352Z,7.13
2018-08-17T08:19:13.835Z,6.77
2018-08-17T08:21:47.457Z,5.97
2018-08-17T08:24:17.117Z,9.63
2018-08-17T08:26:46.262Z,6.47
2018-08-17T08:29:15.336Z,6.13
2018-08-17T08:31:44.461Z,5.90
2018-08-17T08:34:13.732Z,5.77
2018-08-17T08:36:42.760Z,6.00
2018-08-17T08:39:13.460Z,7.90
2018-08-17T08:41:42.460Z,6.43
2018-08-17T08:44:11.617Z,6.37
2018-08-17T08:46:41.386Z,6.83
2018-08-17T08:49:10.605Z,6.70
2018-08-17T08:51:39.800Z,8.30
2018-08-17T08:54:08.767Z,6.53
2018-08-17T08:56:38.102Z,5.10
2018-08-17T08:59:07.277Z,6.83
2018-08-17T09:01:36.288Z,9.27
2018-08-17T09:04:05.434Z,8.87
2018-08-17T09:06:34.506Z,11.23
2018-08-17T09:09:03.868Z,13.40
2018-08-17T09:11:32.794Z,11.43
2018-08-17T09:14:01.760Z,11.73
2018-08-17T09:16:30.621Z,12.10
2018-08-17T09:18:59.633Z,14.80
2018-08-17T09:21:28.517Z,14.53
2018-08-17T09:23:57.459Z,14.10
2018-08-17T09:26:26.484Z,11.17
2018-08-17T09:28:55.663Z,9.53
2018-08-17T09:31:24.842Z,8.30
2018-08-17T09:33:53.732Z,7.67
2018-08-17T09:36:22.744Z,9.13
2018-08-17T09:38:51.685Z,5.33
2018-08-17T09:41:20.747Z,5.13
2018-08-17T09:43:49.679Z,4.57
2018-08-17T09:46:18.731Z,4.90
2018-08-17T09:48:47.618Z,5.07
2018-08-17T09:51:16.607Z,5.57
2018-08-17T09:53:45.579Z,3.40
2018-08-17T09:56:14.587Z,4.17
2018-08-17T09:58:43.549Z,4.73
2018-08-17T10:01:18.031Z,3.63
2018-08-17T10:03:52.132Z,5.10
2018-08-17T10:06:26.436Z,6.30
2018-08-17T10:09:00.867Z,6.47
2018-08-17T10:11:30.113Z,7.73
2018-08-17T10:13:59.140Z,8.53
2018-08-17T10:16:27.989Z,8.57
2018-08-17T10:18:56.761Z,9.00
2018-08-17T10:21:26.034Z,9.70
2018-08-17T10:23:54.564Z,10.53
2018-08-17T10:26:24.068Z,13.80
2018-08-17T10:28:53.206Z,13.87
2018-08-17T10:31:22.495Z,12.57
2018-08-17T10:33:51.331Z,12.07
2018-08-17T10:36:20.368Z,10.53
2018-08-17T10:38:49.221Z,9.43
2018-08-17T10:41:18.256Z,10.57
2018-08-17T10:43:47.147Z,10.50
2018-08-17T10:46:16.573Z,9.77
2018-08-17T10:48:45.639Z,11.20
2018-08-17T10:51:14.587Z,12.47
2018-08-17T10:53:46.196Z,14.30
2018-08-17T10:56:15.255Z,17.20
2018-08-17T10:58:44.152Z,18.83
2018-08-17T11:01:13.398Z,19.73
2018-08-17T11:03:42.534Z,18.37
2018-08-17T11:06:11.475Z,17.37
2018-08-17T11:08:40.896Z,14.60
2018-08-17T11:11:09.994Z,15.07
2018-08-17T11:13:38.939Z,12.10
2018-08-17T11:16:07.914Z,12.60
2018-08-17T11:18:36.724Z,12.23
2018-08-17T11:21:05.590Z,13.20
2018-08-17T11:23:34.426Z,14.83
2018-08-17T11:26:03.678Z,15.27
2018-08-17T11:28:34.174Z,14.57
2018-08-17T11:31:03.395Z,14.10
2018-08-17T11:33:32.279Z,13.03
2018-08-17T11:36:01.361Z,12.00
2018-08-17T11:38:30.370Z,11.87
2018-08-17T11:40:59.421Z,9.87
2018-08-17T11:43:28.406Z,9.43
2018-08-17T11:45:57.375Z,8.63
2018-08-17T11:48:31.495Z,9.10
2018-08-17T11:51:00.593Z,8.87
2018-08-17T11:53:29.646Z,10.77
2018-08-17T11:55:58.782Z,12.07
2018-08-17T11:58:27.851Z,11.87
2018-08-17T12:00:56.922Z,12.40
2018-08-17T12:03:26.020Z,13.07
2018-08-17T12:05:54.912Z,12.17
2018-08-17T12:08:23.908Z,11.87
2018-08-17T12:11:03.229Z,11.80
2018-08-17T12:13:32.192Z,12.03
2018-08-17T12:16:01.046Z,11.60
2018-08-17T12:18:30.003Z,9.63
2018-08-17T12:20:59.170Z,8.40
2018-08-17T12:23:28.330Z,8.97
2018-08-17T12:25:58.435Z,9.77
2018-08-17T12:28:29.661Z,9.93
2018-08-17T12:30:59.245Z,11.17
2018-08-17T12:33:28.397Z,13.87
2018-08-17T12:35:57.334Z,13.57
2018-08-17T12:38:26.247Z,13.03
2018-08-17T12:40:56.369Z,12.60
2018-08-17T12:43:31.626Z,13.80
2018-08-17T12:46:00.559Z,13.33
2018-08-17T12:48:29.528Z,12.67
2018-08-17T12:51:03.437Z,13.83
2018-08-17T12:53:32.443Z,13.00
2018-08-17T12:56:01.603Z,14.13
2018-08-17T12:58:30.481Z,14.77
2018-08-17T13:00:59.319Z,14.57
2018-08-17T13:03:28.279Z,15.60
2018-08-17T13:05:57.275Z,15.77
2018-08-17T13:08:26.469Z,15.57
2018-08-17T13:10:58.729Z,17.00
2018-08-17T13:13:27.621Z,17.27
2018-08-17T13:16:01.677Z,15.57
2018-08-17T13:18:33.290Z,16.53
2018-08-17T13:21:02.408Z,16.23
2018-08-17T13:23:31.410Z,15.30
2018-08-17T13:26:00.234Z,16.90
2018-08-17T13:28:29.429Z,16.03
2018-08-17T13:30:58.514Z,17.00
2018-08-17T13:33:27.586Z,15.77
2018-08-17T13:35:56.558Z,15.90
2018-08-17T13:38:25.454Z,17.43
2018-08-17T13:40:54.287Z,17.43
2018-08-17T13:43:23.228Z,16.90
2018-08-17T13:45:52.161Z,17.20
2018-08-17T13:48:21.058Z,19.13
2018-08-17T13:50:50.015Z,19.77
2018-08-17T13:53:19.122Z,17.23
2018-08-17T13:55:48.125Z,19.27
2018-08-17T13:58:17.028Z,18.53
2018-08-17T14:00:46.085Z,16.17
2018-08-17T14:03:14.911Z,18.33
2018-08-17T14:05:43.823Z,16.67
2018-08-17T14:08:12.952Z,16.73
2018-08-17T14:10:41.709Z,17.13
2018-08-17T14:13:10.620Z,17.73
2018-08-17T14:15:39.860Z,19.73
2018-08-17T14:18:09.062Z,19.97
2018-08-17T14:20:38.144Z,19.57
2018-08-17T14:23:07.044Z,18.90
2018-08-17T14:25:35.913Z,17.20
2018-08-17T14:28:05.187Z,18.90
2018-08-17T14:30:34.067Z,19.77
2018-08-17T14:33:02.911Z,17.83
2018-08-17T14:35:31.771Z,18.97
2018-08-17T14:38:00.724Z,18.17
2018-08-17T14:40:29.883Z,17.53
2018-08-17T14:42:58.767Z,18.43
2018-08-17T14:45:34.449Z,20.53
2018-08-17T14:48:03.636Z,18.93
2018-08-17T14:50:32.578Z,17.33
2018-08-17T14:53:01.615Z,17.87
2018-08-17T14:55:30.517Z,15.43
2018-08-17T14:57:59.410Z,15.80
2018-08-17T15:00:28.509Z,13.50
2018-08-17T15:02:57.319Z,14.47
2018-08-17T15:05:26.391Z,14.67
2018-08-17T15:07:55.487Z,14.70
2018-08-17T15:10:24.627Z,14.43
2018-08-17T15:12:53.636Z,13.23
2018-08-17T15:15:22.708Z,12.07
2018-08-17T15:17:51.745Z,10.80
2018-08-17T15:20:20.753Z,10.27
2018-08-17T15:22:49.568Z,9.00
2018-08-17T15:25:18.581Z,9.70
2018-08-17T15:27:47.444Z,10.10
2018-08-17T15:30:16.400Z,11.60
2018-08-17T15:32:45.348Z,11.13
2018-08-17T15:35:14.374Z,10.00
2018-08-17T15:37:43.341Z,9.87
2018-08-17T15:40:13.083Z,9.50
2018-08-17T15:42:42.393Z,9.43
2018-08-17T15:45:11.709Z,10.72
2018-08-17T15:47:40.555Z,8.93
2018-08-17T15:50:13.214Z,8.23
2018-08-17T15:52:42.484Z,7.77
2018-08-17T15:55:11.512Z,9.30
2018-08-17T15:57:40.722Z,11.63
2018-08-17T16:00:11.917Z,9.10
2018-08-17T16:02:40.959Z,9.70
2018-08-17T16:05:10.033Z,9.53
2018-08-17T16:07:39.038Z,7.90
2018-08-17T16:10:09.998Z,9.73
2018-08-17T16:12:39.162Z,8.97
2018-08-17T16:15:09.060Z,9.97
2018-08-17T16:17:38.303Z,10.17
2018-08-17T16:20:08.744Z,10.33
2018-08-17T16:22:37.594Z,10.90
2018-08-17T16:25:07.291Z,10.93
2018-08-17T16:27:36.207Z,9.67
2018-08-17T16:30:06.455Z,7.97
2018-08-17T16:32:35.301Z,6.73
2018-08-17T16:35:04.720Z,6.22
2018-08-17T16:37:33.659Z,6.25
2018-08-17T16:40:02.449Z,6.95
2018-08-17T16:42:34.086Z,5.75
2018-08-17T16:45:03.041Z,6.72
2018-08-17T16:47:31.974Z,7.35
2018-08-17T16:50:00.961Z,7.12
2018-08-17T16:52:30.034Z,6.60
2018-08-17T16:54:58.896Z,7.08
2018-08-17T16:57:27.695Z,6.72
2018-08-17T16:59:56.684Z,8.20
2018-08-17T17:02:25.575Z,9.43
2018-08-17T17:04:54.475Z,9.10
2018-08-17T17:07:28.301Z,9.90
2018-08-17T17:09:57.315Z,8.57
2018-08-17T17:12:26.125Z,8.77
2018-08-17T17:15:03.182Z,8.07
2018-08-17T17:17:32.253Z,9.90
2018-08-17T17:20:01.073Z,12.97
2018-08-17T17:22:29.908Z,9.70
2018-08-17T17:25:04.811Z,8.47
2018-08-17T17:27:33.633Z,8.37
2018-08-17T17:30:02.511Z,6.97
2018-08-17T17:32:31.270Z,7.07
2018-08-17T17:35:00.019Z,6.37
2018-08-17T17:37:28.823Z,6.73
2018-08-17T17:39:57.811Z,8.50
2018-08-17T17:42:26.669Z,6.90
2018-08-17T17:44:55.530Z,6.87
2018-08-17T17:47:24.502Z,7.67
2018-08-17T17:49:53.555Z,7.03
2018-08-17T17:52:22.362Z,5.87
2018-08-17T17:54:51.192Z,6.90
2018-08-17T17:57:20.244Z,8.97
2018-08-17T17:59:53.208Z,9.83
2018-08-17T18:02:22.376Z,7.30
2018-08-17T18:04:51.298Z,8.33
2018-08-17T18:07:20.038Z,7.87
2018-08-17T18:09:48.808Z,6.90
2018-08-17T18:12:17.678Z,8.30
2018-08-17T18:14:46.538Z,7.90
2018-08-17T18:17:15.439Z,10.60
2018-08-17T18:19:44.304Z,12.80
2018-08-17T18:22:18.339Z,5.93
2018-08-17T18:24:47.181Z,7.33
2018-08-17T18:27:15.925Z,6.53
2018-08-17T18:29:44.694Z,7.93
2018-08-17T18:32:13.521Z,9.80
2018-08-17T18:34:42.331Z,8.43
2018-08-17T18:37:11.359Z,7.93
2018-08-17T18:39:40.148Z,9.23
2018-08-17T18:42:09.074Z,7.07
2018-08-17T18:44:37.885Z,7.83
2018-08-17T18:47:06.702Z,7.50
2018-08-17T18:49:35.483Z,8.33
2018-08-17T18:52:04.495Z,10.17
2018-08-17T18:54:33.479Z,8.63
2018-08-17T18:57:02.417Z,9.50
2018-08-17T18:59:31.197Z,8.17
2018-08-17T19:02:00.263Z,6.80
2018-08-17T19:04:29.225Z,10.30
2018-08-17T19:06:58.223Z,7.27
2018-08-17T19:09:26.994Z,8.10
2018-08-17T19:11:55.835Z,8.30
2018-08-17T19:14:24.704Z,11.10
2018-08-17T19:16:53.513Z,8.00
2018-08-17T19:19:22.327Z,7.57
2018-08-17T19:21:51.297Z,9.70
2018-08-17T19:24:20.158Z,8.33
2018-08-17T19:26:48.971Z,11.03
2018-08-17T19:29:17.937Z,10.57
2018-08-17T19:31:56.001Z,8.83
2018-08-17T19:34:27.766Z,8.57
2018-08-17T19:36:56.665Z,8.23
2018-08-17T19:39:30.712Z,9.93
2018-08-17T19:42:00.168Z,11.67
2018-08-17T19:44:28.983Z,9.73
2018-08-17T19:46:57.762Z,8.20
2018-08-17T19:49:26.553Z,10.10
2018-08-17T19:51:55.533Z,10.43
2018-08-17T19:54:24.306Z,6.90
2018-08-17T19:56:53.165Z,10.53
2018-08-17T19:59:21.911Z,12.00
2018-08-17T20:01:50.697Z,12.00
2018-08-17T20:04:19.585Z,9.27
2018-08-17T20:06:48.456Z,8.93
2018-08-17T20:09:17.349Z,11.27
2018-08-17T20:11:46.188Z,6.70
2018-08-17T20:14:15.036Z,10.00
2018-08-17T20:16:43.798Z,10.90
2018-08-17T20:19:12.797Z,7.33
2018-08-17T20:21:41.693Z,8.70
2018-08-17T20:24:10.466Z,9.87
2018-08-17T20:26:39.614Z,6.33
2018-08-17T20:29:08.126Z,8.53
2018-08-17T20:31:43.413Z,6.13
2018-08-17T20:34:12.432Z,9.67
2018-08-17T20:36:41.649Z,7.70
2018-08-17T20:39:12.231Z,6.77
2018-08-17T20:41:41.213Z,8.43
2018-08-17T20:44:10.166Z,7.53
2018-08-17T20:46:38.990Z,9.53
2018-08-17T20:49:07.746Z,5.77
2018-08-17T20:51:43.422Z,8.17
2018-08-17T20:54:12.156Z,7.00
2018-08-17T20:56:41.146Z,6.63
2018-08-17T20:59:09.954Z,5.53
2018-08-17T21:01:38.793Z,7.53
2018-08-17T21:04:07.624Z,10.93
2018-08-17T21:06:36.435Z,9.53
2018-08-17T21:09:07.272Z,9.03
2018-08-17T21:11:36.344Z,9.63
2018-08-17T21:14:05.099Z,8.03
2018-08-17T21:16:34.037Z,11.43
2018-08-17T21:19:02.845Z,14.40
2018-08-17T21:21:31.692Z,9.80
2018-08-17T21:24:00.440Z,9.77
2018-08-17T21:26:29.265Z,8.27
2018-08-17T21:28:58.207Z,6.50
2018-08-17T21:31:26.998Z,8.37
2018-08-17T21:33:56.064Z,8.47
2018-08-17T21:36:24.838Z,7.83
2018-08-17T21:39:10.415Z,12.07
2018-08-17T21:41:40.777Z,8.80
2018-08-17T21:44:11.804Z,8.73
2018-08-17T21:46:43.677Z,8.97
2018-08-17T21:49:12.455Z,9.47
2018-08-17T21:51:42.010Z,9.23
2018-08-17T21:54:11.798Z,12.87
2018-08-17T21:56:40.576Z,11.13
2018-08-17T21:59:09.405Z,9.87
2018-08-17T22:01:38.178Z,8.27
2018-08-17T22:04:07.046Z,7.73
2018-08-17T22:06:35.974Z,8.67
2018-08-17T22:09:06.242Z,9.53
2018-08-17T22:11:35.855Z,8.30
2018-08-17T22:14:05.195Z,7.43
2018-08-17T22:16:33.954Z,8.80
2018-08-17T22:19:02.765Z,7.80
2018-08-17T22:21:31.748Z,7.67
2018-08-17T22:24:00.643Z,7.93
2018-08-17T22:26:29.345Z,7.57
2018-08-17T22:28:58.178Z,8.43
2018-08-17T22:31:43.381Z,6.77
2018-08-17T22:34:12.393Z,8.40
2018-08-17T22:36:41.335Z,5.97
2018-08-17T22:39:10.168Z,7.23
2018-08-17T22:41:39.058Z,10.57
2018-08-17T22:44:12.166Z,10.67
2018-08-17T22:46:41.828Z,9.20
2018-08-17T22:49:10.676Z,9.60
2018-08-17T22:51:39.498Z,9.37
2018-08-17T22:54:08.452Z,7.20
2018-08-17T22:56:37.728Z,9.33
2018-08-17T22:59:06.533Z,7.97
2018-08-17T23:01:35.425Z,8.40
2018-08-17T23:04:04.415Z,9.07
2018-08-17T23:06:33.270Z,6.90
2018-08-17T23:09:02.017Z,9.10
2018-08-17T23:11:34.066Z,9.67
2018-08-17T23:14:08.065Z,7.53
2018-08-17T23:16:36.844Z,8.87
2018-08-17T23:19:05.709Z,8.47
2018-08-17T23:21:34.462Z,8.70
2018-08-17T23:24:03.260Z,7.67
2018-08-17T23:26:32.158Z,8.43
2018-08-17T23:29:01.070Z,9.60
2018-08-17T23:31:29.841Z,9.17
2018-08-17T23:33:58.832Z,7.70
2018-08-17T23:36:34.263Z,9.67
2018-08-17T23:39:03.516Z,9.93
2018-08-17T23:41:33.223Z,8.63
2018-08-17T23:44:02.027Z,9.27
2018-08-17T23:46:30.756Z,8.70
2018-08-17T23:48:59.585Z,6.87
2018-08-17T23:51:28.372Z,6.60
2018-08-17T23:53:57.231Z,12.67
2018-08-17T23:56:26.089Z,8.03
2018-08-17T23:58:54.917Z,11.30
